sensor_id;sensor_type;location;lat;lon;timestamp;P1;durP1;ratioP1;P2;durP2;ratioP2
43297;SDS011;28892;55.640;37.532;2023-04-24T00:00:54;10.50;;;6.93;;
43297;SDS011;28892;55.640;37.532;2023-04-24T00:03:25;11.35;;;7.28;;
43297;SDS011;28892;55.640;37.532;2023-04-24T00:05:51;7.80;;;6.95;;
43297;SDS011;28892;55.640;37.532;2023-04-24T00:08:17;8.80;;;6.97;;
43297;SDS011;28892;55.640;37.532;2023-04-24T00:10:43;11.25;;;7.60;;
43297;SDS011;28892;55.640;37.532;2023-04-24T00:13:09;8.02;;;7.00;;
43297;SDS011;28892;55.640;37.532;2023-04-24T00:15:35;9.63;;;6.72;;
43297;SDS011;28892;55.640;37.532;2023-04-24T00:18:01;10.18;;;6.97;;
43297;SDS011;28892;55.640;37.532;2023-04-24T00:20:27;11.65;;;7.10;;
43297;SDS011;28892;55.640;37.532;2023-04-24T00:23:03;9.65;;;6.93;;
43297;SDS011;28892;55.640;37.532;2023-04-24T00:25:29;7.97;;;7.13;;
43297;SDS011;28892;55.640;37.532;2023-04-24T00:27:55;9.10;;;6.80;;
43297;SDS011;28892;55.640;37.532;2023-04-24T00:30:20;9.13;;;7.63;;
43297;SDS011;28892;55.640;37.532;2023-04-24T00:32:47;8.75;;;7.60;;
43297;SDS011;28892;55.640;37.532;2023-04-24T00:35:13;10.02;;;7.13;;
43297;SDS011;28892;55.640;37.532;2023-04-24T00:37:39;8.52;;;7.10;;
43297;SDS011;28892;55.640;37.532;2023-04-24T00:40:05;10.60;;;7.90;;
43297;SDS011;28892;55.640;37.532;2023-04-24T00:42:32;8.48;;;7.43;;
43297;SDS011;28892;55.640;37.532;2023-04-24T00:44:58;8.73;;;7.82;;
43297;SDS011;28892;55.640;37.532;2023-04-24T00:47:25;10.05;;;7.82;;
43297;SDS011;28892;55.640;37.532;2023-04-24T00:49:51;11.63;;;8.38;;
43297;SDS011;28892;55.640;37.532;2023-04-24T00:52:18;10.13;;;8.77;;
43297;SDS011;28892;55.640;37.532;2023-04-24T00:54:44;9.05;;;8.23;;
43297;SDS011;28892;55.640;37.532;2023-04-24T00:57:10;9.02;;;7.88;;
43297;SDS011;28892;55.640;37.532;2023-04-24T00:59:36;9.68;;;8.68;;
43297;SDS011;28892;55.640;37.532;2023-04-24T01:02:02;9.45;;;8.45;;
43297;SDS011;28892;55.640;37.532;2023-04-24T01:04:28;10.63;;;9.18;;
43297;SDS011;28892;55.640;37.532;2023-04-24T01:06:54;9.85;;;8.60;;
43297;SDS011;28892;55.640;37.532;2023-04-24T01:09:21;10.77;;;8.27;;
43297;SDS011;28892;55.640;37.532;2023-04-24T01:11:50;8.52;;;7.72;;
43297;SDS011;28892;55.640;37.532;2023-04-24T01:14:16;11.23;;;8.35;;
43297;SDS011;28892;55.640;37.532;2023-04-24T01:16:42;11.85;;;8.68;;
43297;SDS011;28892;55.640;37.532;2023-04-24T01:19:08;10.95;;;8.30;;
43297;SDS011;28892;55.640;37.532;2023-04-24T01:21:37;8.82;;;7.90;;
43297;SDS011;28892;55.640;37.532;2023-04-24T01:24:04;9.10;;;8.10;;
43297;SDS011;28892;55.640;37.532;2023-04-24T01:26:30;8.30;;;7.38;;
43297;SDS011;28892;55.640;37.532;2023-04-24T01:28:56;8.30;;;7.20;;
43297;SDS011;28892;55.640;37.532;2023-04-24T01:31:23;8.88;;;7.97;;
43297;SDS011;28892;55.640;37.532;2023-04-24T01:33:49;8.63;;;7.72;;
43297;SDS011;28892;55.640;37.532;2023-04-24T01:36:16;10.57;;;7.30;;
43297;SDS011;28892;55.640;37.532;2023-04-24T01:38:42;9.77;;;7.63;;
43297;SDS011;28892;55.640;37.532;2023-04-24T01:41:09;8.18;;;7.32;;
43297;SDS011;28892;55.640;37.532;2023-04-24T01:43:35;8.85;;;7.70;;
43297;SDS011;28892;55.640;37.532;2023-04-24T01:46:01;10.02;;;7.47;;
43297;SDS011;28892;55.640;37.532;2023-04-24T01:48:27;11.00;;;7.88;;
43297;SDS011;28892;55.640;37.532;2023-04-24T01:50:53;10.18;;;7.68;;
43297;SDS011;28892;55.640;37.532;2023-04-24T01:53:19;8.52;;;7.35;;
43297;SDS011;28892;55.640;37.532;2023-04-24T01:55:45;12.57;;;7.82;;
43297;SDS011;28892;55.640;37.532;2023-04-24T01:58:12;8.90;;;7.68;;
43297;SDS011;28892;55.640;37.532;2023-04-24T02:00:38;8.43;;;7.47;;
43297;SDS011;28892;55.640;37.532;2023-04-24T02:03:04;9.82;;;7.78;;
43297;SDS011;28892;55.640;37.532;2023-04-24T02:05:29;10.02;;;7.13;;
43297;SDS011;28892;55.640;37.532;2023-04-24T02:07:55;9.60;;;7.18;;
43297;SDS011;28892;55.640;37.532;2023-04-24T02:10:21;7.93;;;6.90;;
43297;SDS011;28892;55.640;37.532;2023-04-24T02:12:48;9.27;;;7.30;;
43297;SDS011;28892;55.640;37.532;2023-04-24T02:15:15;7.68;;;6.88;;
43297;SDS011;28892;55.640;37.532;2023-04-24T02:17:42;7.53;;;6.70;;
43297;SDS011;28892;55.640;37.532;2023-04-24T02:20:08;11.25;;;6.90;;
43297;SDS011;28892;55.640;37.532;2023-04-24T02:22:34;10.25;;;7.13;;
43297;SDS011;28892;55.640;37.532;2023-04-24T02:25:02;8.70;;;6.60;;
43297;SDS011;28892;55.640;37.532;2023-04-24T02:27:31;9.40;;;6.38;;
43297;SDS011;28892;55.640;37.532;2023-04-24T02:29:57;6.72;;;6.03;;
43297;SDS011;28892;55.640;37.532;2023-04-24T02:32:23;8.73;;;6.63;;
43297;SDS011;28892;55.640;37.532;2023-04-24T02:34:49;8.95;;;5.75;;
43297;SDS011;28892;55.640;37.532;2023-04-24T02:37:14;7.55;;;6.15;;
43297;SDS011;28892;55.640;37.532;2023-04-24T02:39:42;10.70;;;6.35;;
43297;SDS011;28892;55.640;37.532;2023-04-24T02:42:08;7.57;;;6.00;;
43297;SDS011;28892;55.640;37.532;2023-04-24T02:44:34;8.13;;;6.13;;
43297;SDS011;28892;55.640;37.532;2023-04-24T02:47:00;7.88;;;6.18;;
43297;SDS011;28892;55.640;37.532;2023-04-24T02:49:26;7.30;;;5.53;;
43297;SDS011;28892;55.640;37.532;2023-04-24T02:51:53;7.97;;;5.88;;
43297;SDS011;28892;55.640;37.532;2023-04-24T02:54:20;8.35;;;6.03;;
43297;SDS011;28892;55.640;37.532;2023-04-24T02:56:46;10.07;;;5.72;;
43297;SDS011;28892;55.640;37.532;2023-04-24T02:59:11;7.38;;;5.20;;
43297;SDS011;28892;55.640;37.532;2023-04-24T03:01:37;8.07;;;6.03;;
43297;SDS011;28892;55.640;37.532;2023-04-24T03:04:03;6.32;;;5.72;;
43297;SDS011;28892;55.640;37.532;2023-04-24T03:06:30;8.50;;;6.15;;
43297;SDS011;28892;55.640;37.532;2023-04-24T03:08:59;7.15;;;6.20;;
43297;SDS011;28892;55.640;37.532;2023-04-24T03:11:25;7.35;;;6.28;;
43297;SDS011;28892;55.640;37.532;2023-04-24T03:13:51;10.05;;;6.30;;
43297;SDS011;28892;55.640;37.532;2023-04-24T03:16:19;7.18;;;6.00;;
43297;SDS011;28892;55.640;37.532;2023-04-24T03:18:46;9.23;;;6.18;;
43297;SDS011;28892;55.640;37.532;2023-04-24T03:21:13;7.88;;;6.03;;
43297;SDS011;28892;55.640;37.532;2023-04-24T03:23:58;9.40;;;6.63;;
43297;SDS011;28892;55.640;37.532;2023-04-24T03:26:56;8.07;;;6.20;;
43297;SDS011;28892;55.640;37.532;2023-04-24T03:30:17;9.93;;;6.10;;
43297;SDS011;28892;55.640;37.532;2023-04-24T03:32:53;8.23;;;6.03;;
43297;SDS011;28892;55.640;37.532;2023-04-24T03:35:24;8.43;;;6.63;;
43297;SDS011;28892;55.640;37.532;2023-04-24T03:38:18;7.97;;;6.20;;
43297;SDS011;28892;55.640;37.532;2023-04-24T03:41:01;8.50;;;6.50;;
43297;SDS011;28892;55.640;37.532;2023-04-24T03:43:45;10.43;;;6.18;;
43297;SDS011;28892;55.640;37.532;2023-04-24T03:46:11;7.68;;;6.25;;
43297;SDS011;28892;55.640;37.532;2023-04-24T03:49:15;10.00;;;6.40;;
43297;SDS011;28892;55.640;37.532;2023-04-24T03:51:46;7.35;;;6.53;;
43297;SDS011;28892;55.640;37.532;2023-04-24T03:54:21;8.65;;;6.32;;
43297;SDS011;28892;55.640;37.532;2023-04-24T03:56:49;9.43;;;7.43;;
43297;SDS011;28892;55.640;37.532;2023-04-24T03:59:15;9.95;;;6.70;;
43297;SDS011;28892;55.640;37.532;2023-04-24T04:01:45;8.05;;;6.60;;
43297;SDS011;28892;55.640;37.532;2023-04-24T04:04:14;8.32;;;6.22;;
43297;SDS011;28892;55.640;37.532;2023-04-24T04:06:41;6.82;;;5.82;;
43297;SDS011;28892;55.640;37.532;2023-04-24T04:09:08;9.63;;;6.72;;
43297;SDS011;28892;55.640;37.532;2023-04-24T04:11:35;9.90;;;6.03;;
43297;SDS011;28892;55.640;37.532;2023-04-24T04:14:01;12.23;;;6.55;;
43297;SDS011;28892;55.640;37.532;2023-04-24T04:16:27;8.73;;;7.13;;
43297;SDS011;28892;55.640;37.532;2023-04-24T04:18:59;9.05;;;5.93;;
43297;SDS011;28892;55.640;37.532;2023-04-24T04:21:25;7.95;;;6.03;;
43297;SDS011;28892;55.640;37.532;2023-04-24T04:23:58;9.95;;;6.05;;
43297;SDS011;28892;55.640;37.532;2023-04-24T04:26:40;10.00;;;6.68;;
43297;SDS011;28892;55.640;37.532;2023-04-24T04:29:08;7.43;;;5.47;;
43297;SDS011;28892;55.640;37.532;2023-04-24T04:31:40;11.43;;;6.72;;
43297;SDS011;28892;55.640;37.532;2023-04-24T04:34:10;16.25;;;7.32;;
43297;SDS011;28892;55.640;37.532;2023-04-24T04:36:38;13.27;;;7.10;;
43297;SDS011;28892;55.640;37.532;2023-04-24T04:39:26;9.15;;;5.90;;
43297;SDS011;28892;55.640;37.532;2023-04-24T04:42:13;11.30;;;6.38;;
43297;SDS011;28892;55.640;37.532;2023-04-24T04:44:41;13.32;;;6.70;;
43297;SDS011;28892;55.640;37.532;2023-04-24T04:47:10;10.18;;;6.38;;
43297;SDS011;28892;55.640;37.532;2023-04-24T04:49:37;9.23;;;6.38;;
43297;SDS011;28892;55.640;37.532;2023-04-24T04:52:09;18.75;;;6.75;;
43297;SDS011;28892;55.640;37.532;2023-04-24T04:54:35;9.93;;;6.57;;
43297;SDS011;28892;55.640;37.532;2023-04-24T04:57:03;9.50;;;6.70;;
43297;SDS011;28892;55.640;37.532;2023-04-24T04:59:31;8.95;;;6.57;;
43297;SDS011;28892;55.640;37.532;2023-04-24T05:02:03;10.77;;;6.78;;
43297;SDS011;28892;55.640;37.532;2023-04-24T05:04:30;11.07;;;6.90;;
43297;SDS011;28892;55.640;37.532;2023-04-24T05:06:56;10.82;;;6.45;;
43297;SDS011;28892;55.640;37.532;2023-04-24T05:09:27;11.27;;;6.60;;
43297;SDS011;28892;55.640;37.532;2023-04-24T05:12:00;13.55;;;6.55;;
43297;SDS011;28892;55.640;37.532;2023-04-24T05:14:34;10.35;;;6.75;;
43297;SDS011;28892;55.640;37.532;2023-04-24T05:17:00;11.65;;;6.72;;
43297;SDS011;28892;55.640;37.532;2023-04-24T05:19:29;9.90;;;6.60;;
43297;SDS011;28892;55.640;37.532;2023-04-24T05:22:00;9.55;;;6.20;;
43297;SDS011;28892;55.640;37.532;2023-04-24T05:24:29;9.80;;;6.47;;
43297;SDS011;28892;55.640;37.532;2023-04-24T05:27:22;8.40;;;6.15;;
43297;SDS011;28892;55.640;37.532;2023-04-24T05:29:49;10.45;;;6.43;;
43297;SDS011;28892;55.640;37.532;2023-04-24T05:32:15;8.38;;;6.32;;
43297;SDS011;28892;55.640;37.532;2023-04-24T05:34:41;9.55;;;5.95;;
43297;SDS011;28892;55.640;37.532;2023-04-24T05:37:08;7.97;;;6.28;;
43297;SDS011;28892;55.640;37.532;2023-04-24T05:39:35;9.48;;;6.40;;
43297;SDS011;28892;55.640;37.532;2023-04-24T05:42:01;8.80;;;6.00;;
43297;SDS011;28892;55.640;37.532;2023-04-24T05:44:28;10.45;;;6.28;;
43297;SDS011;28892;55.640;37.532;2023-04-24T05:46:54;8.82;;;6.07;;
43297;SDS011;28892;55.640;37.532;2023-04-24T05:49:21;10.82;;;6.00;;
43297;SDS011;28892;55.640;37.532;2023-04-24T05:51:48;8.48;;;5.50;;
43297;SDS011;28892;55.640;37.532;2023-04-24T05:54:18;10.43;;;6.15;;
43297;SDS011;28892;55.640;37.532;2023-04-24T05:56:45;7.10;;;5.70;;
43297;SDS011;28892;55.640;37.532;2023-04-24T06:01:48;10.18;;;6.50;;
43297;SDS011;28892;55.640;37.532;2023-04-24T06:04:19;15.35;;;6.85;;
43297;SDS011;28892;55.640;37.532;2023-04-24T06:06:45;11.15;;;6.35;;
43297;SDS011;28892;55.640;37.532;2023-04-24T06:09:14;7.97;;;6.32;;
43297;SDS011;28892;55.640;37.532;2023-04-24T06:11:40;8.15;;;5.13;;
43297;SDS011;28892;55.640;37.532;2023-04-24T06:14:09;8.55;;;6.00;;
43297;SDS011;28892;55.640;37.532;2023-04-24T06:16:41;10.25;;;6.05;;
43297;SDS011;28892;55.640;37.532;2023-04-24T06:19:21;11.55;;;6.95;;
43297;SDS011;28892;55.640;37.532;2023-04-24T06:21:47;10.13;;;6.20;;
43297;SDS011;28892;55.640;37.532;2023-04-24T06:24:14;8.85;;;5.72;;
43297;SDS011;28892;55.640;37.532;2023-04-24T06:26:45;10.55;;;6.05;;
43297;SDS011;28892;55.640;37.532;2023-04-24T06:29:28;10.18;;;6.00;;
43297;SDS011;28892;55.640;37.532;2023-04-24T06:31:59;9.88;;;5.95;;
43297;SDS011;28892;55.640;37.532;2023-04-24T06:34:39;10.02;;;6.10;;
43297;SDS011;28892;55.640;37.532;2023-04-24T06:37:11;8.02;;;6.15;;
43297;SDS011;28892;55.640;37.532;2023-04-24T06:39:50;12.15;;;6.15;;
43297;SDS011;28892;55.640;37.532;2023-04-24T06:42:23;16.08;;;6.93;;
43297;SDS011;28892;55.640;37.532;2023-04-24T06:45:00;11.68;;;6.38;;
43297;SDS011;28892;55.640;37.532;2023-04-24T06:47:33;9.95;;;6.13;;
43297;SDS011;28892;55.640;37.532;2023-04-24T06:50:05;10.95;;;6.50;;
43297;SDS011;28892;55.640;37.532;2023-04-24T06:52:36;9.23;;;6.05;;
43297;SDS011;28892;55.640;37.532;2023-04-24T06:55:23;11.13;;;6.10;;
43297;SDS011;28892;55.640;37.532;2023-04-24T07:05:46;8.65;;;5.43;;
43297;SDS011;28892;55.640;37.532;2023-04-24T07:08:27;10.98;;;5.60;;
43297;SDS011;28892;55.640;37.532;2023-04-24T07:11:00;10.98;;;5.65;;
43297;SDS011;28892;55.640;37.532;2023-04-24T07:22:07;8.63;;;5.50;;
43297;SDS011;28892;55.640;37.532;2023-04-24T07:30:54;9.38;;;4.72;;
43297;SDS011;28892;55.640;37.532;2023-04-24T07:33:27;6.47;;;4.78;;
43297;SDS011;28892;55.640;37.532;2023-04-24T07:35:53;5.47;;;4.78;;
43297;SDS011;28892;55.640;37.532;2023-04-24T07:38:19;6.68;;;4.60;;
43297;SDS011;28892;55.640;37.532;2023-04-24T07:40:48;8.93;;;5.32;;
43297;SDS011;28892;55.640;37.532;2023-04-24T07:43:14;6.10;;;4.63;;
43297;SDS011;28892;55.640;37.532;2023-04-24T07:45:40;9.20;;;4.20;;
43297;SDS011;28892;55.640;37.532;2023-04-24T07:48:06;6.28;;;4.50;;
43297;SDS011;28892;55.640;37.532;2023-04-24T07:50:36;5.35;;;4.50;;
43297;SDS011;28892;55.640;37.532;2023-04-24T07:53:04;5.25;;;4.75;;
43297;SDS011;28892;55.640;37.532;2023-04-24T07:55:30;10.27;;;4.97;;
43297;SDS011;28892;55.640;37.532;2023-04-24T07:57:57;4.85;;;4.13;;
43297;SDS011;28892;55.640;37.532;2023-04-24T08:00:22;6.22;;;4.85;;
43297;SDS011;28892;55.640;37.532;2023-04-24T08:03:56;7.10;;;4.18;;
43297;SDS011;28892;55.640;37.532;2023-04-24T08:06:25;8.05;;;4.47;;
43297;SDS011;28892;55.640;37.532;2023-04-24T08:08:57;5.28;;;4.13;;
43297;SDS011;28892;55.640;37.532;2023-04-24T08:11:29;5.38;;;4.13;;
43297;SDS011;28892;55.640;37.532;2023-04-24T08:13:55;7.75;;;4.20;;
43297;SDS011;28892;55.640;37.532;2023-04-24T08:16:21;7.32;;;4.40;;
43297;SDS011;28892;55.640;37.532;2023-04-24T08:18:49;4.97;;;4.28;;
43297;SDS011;28892;55.640;37.532;2023-04-24T08:21:15;5.38;;;4.13;;
43297;SDS011;28892;55.640;37.532;2023-04-24T08:23:45;4.80;;;4.30;;
43297;SDS011;28892;55.640;37.532;2023-04-24T08:26:14;8.45;;;4.60;;
43297;SDS011;28892;55.640;37.532;2023-04-24T08:28:43;6.53;;;4.10;;
43297;SDS011;28892;55.640;37.532;2023-04-24T08:31:09;5.85;;;4.22;;
43297;SDS011;28892;55.640;37.532;2023-04-24T08:33:35;4.45;;;3.92;;
43297;SDS011;28892;55.640;37.532;2023-04-24T08:36:04;5.10;;;3.90;;
43297;SDS011;28892;55.640;37.532;2023-04-24T08:41:00;6.55;;;4.15;;
43297;SDS011;28892;55.640;37.532;2023-04-24T08:43:26;7.30;;;4.07;;
43297;SDS011;28892;55.640;37.532;2023-04-24T08:45:54;7.35;;;4.35;;
43297;SDS011;28892;55.640;37.532;2023-04-24T08:48:22;4.30;;;3.90;;
43297;SDS011;28892;55.640;37.532;2023-04-24T08:53:42;6.13;;;4.15;;
43297;SDS011;28892;55.640;37.532;2023-04-24T08:56:10;9.00;;;4.25;;
43297;SDS011;28892;55.640;37.532;2023-04-24T08:58:39;8.23;;;4.20;;
43297;SDS011;28892;55.640;37.532;2023-04-24T09:01:09;5.60;;;4.00;;
43297;SDS011;28892;55.640;37.532;2023-04-24T09:03:40;6.32;;;4.43;;
43297;SDS011;28892;55.640;37.532;2023-04-24T09:06:10;4.30;;;3.90;;
43297;SDS011;28892;55.640;37.532;2023-04-24T09:08:37;4.38;;;3.92;;
43297;SDS011;28892;55.640;37.532;2023-04-24T09:11:06;8.27;;;4.28;;
43297;SDS011;28892;55.640;37.532;2023-04-24T09:13:33;5.60;;;4.15;;
43297;SDS011;28892;55.640;37.532;2023-04-24T09:15:59;5.60;;;4.20;;
43297;SDS011;28892;55.640;37.532;2023-04-24T09:18:26;4.80;;;3.97;;
43297;SDS011;28892;55.640;37.532;2023-04-24T09:20:59;6.43;;;4.22;;
43297;SDS011;28892;55.640;37.532;2023-04-24T09:23:27;5.93;;;3.53;;
43297;SDS011;28892;55.640;37.532;2023-04-24T09:26:11;6.95;;;3.85;;
43297;SDS011;28892;55.640;37.532;2023-04-24T09:28:40;4.90;;;3.90;;
43297;SDS011;28892;55.640;37.532;2023-04-24T09:31:11;5.25;;;4.10;;
43297;SDS011;28892;55.640;37.532;2023-04-24T09:34:06;5.30;;;4.10;;
43297;SDS011;28892;55.640;37.532;2023-04-24T09:36:36;4.78;;;4.05;;
43297;SDS011;28892;55.640;37.532;2023-04-24T09:39:04;5.63;;;3.95;;
43297;SDS011;28892;55.640;37.532;2023-04-24T09:41:33;5.22;;;3.67;;
43297;SDS011;28892;55.640;37.532;2023-04-24T09:44:13;4.60;;;3.80;;
43297;SDS011;28892;55.640;37.532;2023-04-24T09:46:51;5.47;;;3.88;;
43297;SDS011;28892;55.640;37.532;2023-04-24T09:49:27;5.28;;;4.07;;
43297;SDS011;28892;55.640;37.532;2023-04-24T09:52:09;8.02;;;4.30;;
43297;SDS011;28892;55.640;37.532;2023-04-24T09:54:36;4.55;;;3.97;;
43297;SDS011;28892;55.640;37.532;2023-04-24T09:57:03;5.45;;;3.88;;
43297;SDS011;28892;55.640;37.532;2023-04-24T09:59:32;4.38;;;3.58;;
43297;SDS011;28892;55.640;37.532;2023-04-24T10:01:58;12.13;;;4.10;;
43297;SDS011;28892;55.640;37.532;2023-04-24T10:04:25;4.63;;;3.95;;
43297;SDS011;28892;55.640;37.532;2023-04-24T10:06:53;4.35;;;3.95;;
43297;SDS011;28892;55.640;37.532;2023-04-24T10:09:22;4.45;;;3.88;;
43297;SDS011;28892;55.640;37.532;2023-04-24T10:11:49;3.80;;;3.50;;
43297;SDS011;28892;55.640;37.532;2023-04-24T10:14:21;5.70;;;4.20;;
43297;SDS011;28892;55.640;37.532;2023-04-24T10:16:48;7.20;;;4.25;;
43297;SDS011;28892;55.640;37.532;2023-04-24T10:19:16;5.70;;;3.83;;
43297;SDS011;28892;55.640;37.532;2023-04-24T10:21:44;6.40;;;4.10;;
43297;SDS011;28892;55.640;37.532;2023-04-24T10:24:17;7.53;;;4.35;;
43297;SDS011;28892;55.640;37.532;2023-04-24T10:26:45;5.70;;;4.00;;
43297;SDS011;28892;55.640;37.532;2023-04-24T10:29:14;7.30;;;3.72;;
43297;SDS011;28892;55.640;37.532;2023-04-24T10:31:44;4.82;;;3.50;;
43297;SDS011;28892;55.640;37.532;2023-04-24T10:34:11;3.35;;;3.05;;
43297;SDS011;28892;55.640;37.532;2023-04-24T10:36:39;9.25;;;4.10;;
43297;SDS011;28892;55.640;37.532;2023-04-24T10:39:09;4.10;;;3.70;;
43297;SDS011;28892;55.640;37.532;2023-04-24T10:41:38;4.25;;;3.58;;
43297;SDS011;28892;55.640;37.532;2023-04-24T10:44:10;7.50;;;3.92;;
43297;SDS011;28892;55.640;37.532;2023-04-24T10:46:39;5.57;;;4.40;;
43297;SDS011;28892;55.640;37.532;2023-04-24T10:49:08;5.53;;;4.22;;
43297;SDS011;28892;55.640;37.532;2023-04-24T10:51:47;4.70;;;3.65;;
43297;SDS011;28892;55.640;37.532;2023-04-24T11:02:45;7.55;;;4.05;;
43297;SDS011;28892;55.640;37.532;2023-04-24T11:05:18;5.57;;;3.60;;
43297;SDS011;28892;55.640;37.532;2023-04-24T11:10:40;6.13;;;3.95;;
43297;SDS011;28892;55.640;37.532;2023-04-24T11:13:10;6.22;;;3.85;;
43297;SDS011;28892;55.640;37.532;2023-04-24T11:15:36;4.78;;;3.70;;
43297;SDS011;28892;55.640;37.532;2023-04-24T11:18:01;4.07;;;3.40;;
43297;SDS011;28892;55.640;37.532;2023-04-24T11:20:27;5.38;;;3.92;;
43297;SDS011;28892;55.640;37.532;2023-04-24T11:22:54;3.53;;;3.22;;
43297;SDS011;28892;55.640;37.532;2023-04-24T11:25:21;3.92;;;3.58;;
43297;SDS011;28892;55.640;37.532;2023-04-24T11:27:50;6.38;;;3.90;;
43297;SDS011;28892;55.640;37.532;2023-04-24T11:30:29;4.90;;;3.65;;
43297;SDS011;28892;55.640;37.532;2023-04-24T11:33:05;3.72;;;3.42;;
43297;SDS011;28892;55.640;37.532;2023-04-24T11:35:35;5.88;;;3.60;;
43297;SDS011;28892;55.640;37.532;2023-04-24T11:38:04;6.95;;;3.67;;
43297;SDS011;28892;55.640;37.532;2023-04-24T11:40:31;5.18;;;4.00;;
43297;SDS011;28892;55.640;37.532;2023-04-24T11:42:59;5.45;;;3.60;;
43297;SDS011;28892;55.640;37.532;2023-04-24T11:45:27;3.70;;;3.30;;
43297;SDS011;28892;55.640;37.532;2023-04-24T11:47:55;4.15;;;3.75;;
43297;SDS011;28892;55.640;37.532;2023-04-24T11:53:16;5.40;;;3.67;;
43297;SDS011;28892;55.640;37.532;2023-04-24T11:55:47;39.80;;;5.05;;
43297;SDS011;28892;55.640;37.532;2023-04-24T11:58:13;5.80;;;3.45;;
43297;SDS011;28892;55.640;37.532;2023-04-24T12:00:38;4.18;;;3.30;;
43297;SDS011;28892;55.640;37.532;2023-04-24T12:03:11;4.20;;;3.80;;
43297;SDS011;28892;55.640;37.532;2023-04-24T12:05:37;3.88;;;3.45;;
43297;SDS011;28892;55.640;37.532;2023-04-24T12:08:07;4.70;;;3.60;;
43297;SDS011;28892;55.640;37.532;2023-04-24T12:10:33;6.50;;;3.28;;
43297;SDS011;28892;55.640;37.532;2023-04-24T12:13:02;5.90;;;3.38;;
43297;SDS011;28892;55.640;37.532;2023-04-24T12:15:29;5.07;;;3.72;;
43297;SDS011;28892;55.640;37.532;2023-04-24T12:17:57;3.95;;;3.53;;
43297;SDS011;28892;55.640;37.532;2023-04-24T12:20:24;3.50;;;3.20;;
43297;SDS011;28892;55.640;37.532;2023-04-24T12:22:53;4.20;;;3.13;;
43297;SDS011;28892;55.640;37.532;2023-04-24T12:25:21;5.38;;;3.30;;
43297;SDS011;28892;55.640;37.532;2023-04-24T12:30:33;4.13;;;3.60;;
43297;SDS011;28892;55.640;37.532;2023-04-24T12:33:02;4.93;;;3.65;;
43297;SDS011;28892;55.640;37.532;2023-04-24T12:35:29;4.75;;;3.45;;
43297;SDS011;28892;55.640;37.532;2023-04-24T12:38:10;6.80;;;3.50;;
43297;SDS011;28892;55.640;37.532;2023-04-24T12:40:38;4.30;;;3.15;;
43297;SDS011;28892;55.640;37.532;2023-04-24T12:43:18;3.78;;;3.38;;
43297;SDS011;28892;55.640;37.532;2023-04-24T12:48:13;4.15;;;3.50;;
43297;SDS011;28892;55.640;37.532;2023-04-24T12:50:39;5.60;;;3.20;;
43297;SDS011;28892;55.640;37.532;2023-04-24T12:53:07;5.93;;;3.20;;
43297;SDS011;28892;55.640;37.532;2023-04-24T12:55:36;8.85;;;3.30;;
43297;SDS011;28892;55.640;37.532;2023-04-24T12:58:02;5.13;;;3.17;;
43297;SDS011;28892;55.640;37.532;2023-04-24T13:00:28;5.03;;;3.35;;
43297;SDS011;28892;55.640;37.532;2023-04-24T13:02:54;4.63;;;3.50;;
43297;SDS011;28892;55.640;37.532;2023-04-24T13:05:21;3.88;;;3.47;;
43297;SDS011;28892;55.640;37.532;2023-04-24T13:07:46;5.63;;;3.40;;
43297;SDS011;28892;55.640;37.532;2023-04-24T13:10:15;8.52;;;3.50;;
43297;SDS011;28892;55.640;37.532;2023-04-24T13:12:41;4.00;;;3.50;;
43297;SDS011;28892;55.640;37.532;2023-04-24T13:15:10;5.60;;;3.58;;
43297;SDS011;28892;55.640;37.532;2023-04-24T13:17:36;8.20;;;3.90;;
43297;SDS011;28892;55.640;37.532;2023-04-24T13:20:02;4.90;;;3.50;;
43297;SDS011;28892;55.640;37.532;2023-04-24T13:22:29;5.68;;;3.47;;
43297;SDS011;28892;55.640;37.532;2023-04-24T13:24:55;5.57;;;3.33;;
43297;SDS011;28892;55.640;37.532;2023-04-24T13:27:21;5.55;;;3.28;;
43297;SDS011;28892;55.640;37.532;2023-04-24T13:29:47;7.85;;;3.85;;
43297;SDS011;28892;55.640;37.532;2023-04-24T13:32:13;7.32;;;3.80;;
43297;SDS011;28892;55.640;37.532;2023-04-24T13:34:39;4.18;;;2.95;;
43297;SDS011;28892;55.640;37.532;2023-04-24T13:37:05;6.30;;;3.53;;
43297;SDS011;28892;55.640;37.532;2023-04-24T13:39:33;5.43;;;3.53;;
43297;SDS011;28892;55.640;37.532;2023-04-24T13:41:59;5.80;;;3.22;;
43297;SDS011;28892;55.640;37.532;2023-04-24T13:44:26;7.85;;;3.30;;
43297;SDS011;28892;55.640;37.532;2023-04-24T13:46:54;4.50;;;3.20;;
43297;SDS011;28892;55.640;37.532;2023-04-24T13:49:26;5.05;;;3.30;;
43297;SDS011;28892;55.640;37.532;2023-04-24T13:51:52;8.45;;;4.05;;
43297;SDS011;28892;55.640;37.532;2023-04-24T13:54:20;6.35;;;3.33;;
43297;SDS011;28892;55.640;37.532;2023-04-24T13:56:47;6.53;;;3.40;;
43297;SDS011;28892;55.640;37.532;2023-04-24T13:59:13;8.63;;;3.38;;
43297;SDS011;28892;55.640;37.532;2023-04-24T14:01:39;5.68;;;3.40;;
43297;SDS011;28892;55.640;37.532;2023-04-24T14:04:04;5.82;;;3.15;;
43297;SDS011;28892;55.640;37.532;2023-04-24T14:06:30;5.93;;;3.38;;
43297;SDS011;28892;55.640;37.532;2023-04-24T14:08:56;5.00;;;3.33;;
43297;SDS011;28892;55.640;37.532;2023-04-24T14:11:22;4.90;;;3.10;;
43297;SDS011;28892;55.640;37.532;2023-04-24T14:13:51;5.82;;;3.22;;
43297;SDS011;28892;55.640;37.532;2023-04-24T14:16:18;4.53;;;3.60;;
43297;SDS011;28892;55.640;37.532;2023-04-24T14:18:45;4.82;;;3.35;;
43297;SDS011;28892;55.640;37.532;2023-04-24T14:21:14;4.63;;;3.40;;
43297;SDS011;28892;55.640;37.532;2023-04-24T14:23:40;5.50;;;3.08;;
43297;SDS011;28892;55.640;37.532;2023-04-24T14:26:05;5.90;;;3.17;;
43297;SDS011;28892;55.640;37.532;2023-04-24T14:28:32;5.00;;;3.53;;
43297;SDS011;28892;55.640;37.532;2023-04-24T14:30:57;6.05;;;3.28;;
43297;SDS011;28892;55.640;37.532;2023-04-24T14:33:23;5.47;;;3.10;;
43297;SDS011;28892;55.640;37.532;2023-04-24T14:35:49;3.88;;;3.15;;
43297;SDS011;28892;55.640;37.532;2023-04-24T14:38:15;6.22;;;3.50;;
43297;SDS011;28892;55.640;37.532;2023-04-24T14:40:41;5.30;;;3.08;;
43297;SDS011;28892;55.640;37.532;2023-04-24T14:43:07;6.38;;;3.20;;
43297;SDS011;28892;55.640;37.532;2023-04-24T14:45:33;5.00;;;3.40;;
43297;SDS011;28892;55.640;37.532;2023-04-24T14:47:59;8.65;;;3.60;;
43297;SDS011;28892;55.640;37.532;2023-04-24T14:50:25;8.32;;;3.42;;
43297;SDS011;28892;55.640;37.532;2023-04-24T14:52:54;5.00;;;3.15;;
43297;SDS011;28892;55.640;37.532;2023-04-24T14:55:24;4.45;;;3.33;;
43297;SDS011;28892;55.640;37.532;2023-04-24T14:57:52;4.95;;;2.95;;
43297;SDS011;28892;55.640;37.532;2023-04-24T15:00:18;4.93;;;3.10;;
43297;SDS011;28892;55.640;37.532;2023-04-24T15:02:45;6.40;;;3.80;;
43297;SDS011;28892;55.640;37.532;2023-04-24T15:05:11;9.77;;;3.60;;
43297;SDS011;28892;55.640;37.532;2023-04-24T15:07:37;5.90;;;3.40;;
43297;SDS011;28892;55.640;37.532;2023-04-24T15:10:07;5.53;;;3.47;;
43297;SDS011;28892;55.640;37.532;2023-04-24T15:12:33;5.50;;;2.70;;
43297;SDS011;28892;55.640;37.532;2023-04-24T15:14:59;8.13;;;3.38;;
43297;SDS011;28892;55.640;37.532;2023-04-24T15:17:25;10.20;;;3.58;;
43297;SDS011;28892;55.640;37.532;2023-04-24T15:19:52;6.78;;;3.30;;
43297;SDS011;28892;55.640;37.532;2023-04-24T15:22:18;4.13;;;3.30;;
43297;SDS011;28892;55.640;37.532;2023-04-24T15:24:44;6.38;;;3.00;;
43297;SDS011;28892;55.640;37.532;2023-04-24T15:27:10;6.43;;;3.00;;
43297;SDS011;28892;55.640;37.532;2023-04-24T15:29:36;3.83;;;3.03;;
43297;SDS011;28892;55.640;37.532;2023-04-24T15:32:03;4.38;;;3.05;;